Logo AVAMET
Benvolgut visitant, si us plau, ingressa Recuperar contrasenya

Catral

Dades diàries. Acumulats / Últims 30 dies disponibles

Data Temperatura (°C) Humitat rel. (%) Pressió rel. (hPa) Vent (km/h) Precipitació
Mínima Mitjana Màxima Amplitud
tèrmica
Mínima Mitjana Màxima Mínima Mitjana Màxima Predom. Mitjana Ràfega
màxima
Total
(mm)
Índex-n
Mínima Mitjana Màxima Mínima Mitjana Màxima n
0 a 1
P0 max
mm 5'
Dades mensuals acumulades fins l'últim dia disponible
05/2019 11,4 14,7 19,5 19,8 20,6 25,4 31,9 20,5 17 55 92 1.004 1.016 1.026   6,3 41,8 0,0
Dades anuals acumulades fins l'últim dia disponible
2019 0,8 9,1 19,5 14,4 13,1 20,6 31,9 31,1 5 56 93 997 1.021 1.036   5,5 67,6 134,2
Últims 30 dies disponibles
22-05-2019 14,1     20,2     26,8 12,7 24 54 78 1.019 1.019 1.020 SSO 5,0 30,6 0,0
21-05-2019 16,6     20,2     24,4 7,8 42 61 75 1.015 1.017 1.019 ESE 5,1 27,4 0,0
20-05-2019 12,0     18,8     24,1 12,1 42 60 72 1.013 1.014 1.016 SE 5,6 32,2 0,0
19-05-2019 12,3     18,8     24,6 12,3 21 48 74 1.011 1.012 1.014 S 6,3 33,8 0,0
18-05-2019 14,4     19,4     23,2 8,8 26 46 67 1.009 1.010 1.013 SE 5,6 30,6 0,0
17-05-2019 16,0     21,1     26,2 10,2 17 36 75 1.004 1.008 1.011 OSO 11,0 41,8 0,0
16-05-2019 17,6     20,1     23,4 5,8 43 58 69 1.007 1.013 1.015 E 7,2 32,2 0,0
15-05-2019 13,1     20,1     29,9 16,8 23 54 70 1.011 1.013 1.017 ESE 6,3 29,0 0,0
14-05-2019 11,9     18,7     25,1 13,2 29 54 75 1.017 1.020 1.023 S 6,3 41,8 0,0
13-05-2019 15,3     19,0     24,2 8,9 36 59 77 1.020 1.022 1.023 SE 5,5 29,0 0,0
12-05-2019 17,5     20,6     24,3 6,8 40 57 71 1.022 1.024 1.026 S 7,2 29,0 0,0
11-05-2019 18,1     23,6     31,7 13,6 26 49 67 1.016 1.019 1.024 SE 6,1 32,2 0,0
10-05-2019 17,5     24,5     31,9 14,4 26 51 78 1.014 1.015 1.017 SSW 6,9 41,8 0,0
09-05-2019 19,5     24,5     29,8 10,3 30 46 73 1.013 1.014 1.016 NW 6,9 40,2 0,0
08-05-2019 14,6     23,1     31,4 16,8 21 55 92 1.011 1.014 1.017 NW 6,9 41,8 0,0
07-05-2019 15,8     19,3     24,7 8,9 49 67 79 1.016 1.019 1.021 SSE 5,1 25,7 0,0
06-05-2019 13,9     17,6     21,8 7,9 54 64 72 1.018 1.020 1.021 ENE 4,7 25,7 0,0
05-05-2019 13,3     17,2     20,6 7,3 39 58 77 1.013 1.016 1.019 SE 7,1 40,2 0,0
04-05-2019 11,4     16,9     21,4 10,0 38 61 79 1.013 1.014 1.016 S 6,3 35,4 0,0
03-05-2019 11,8     16,6     21,7 9,9 41 60 76 1.011 1.013 1.016 SE 6,4 27,4 0,0
02-05-2019 12,5     17,9     24,1 11,6 25 52 70 1.014 1.015 1.017 ESE 7,1 32,2 0,0
01-05-2019 13,1     17,4     23,1 10,0 21 61 81 1.015 1.017 1.018 E 4,3 24,1 0,0
30-04-2019 12,3     15,9     21,6 9,3 53 71 82 1.018 1.019 1.021 SSE 3,9 25,7 0,0
29-04-2019 10,6     16,2     21,3 10,7 48 62 72 1.019 1.021 1.022 SE 4,8 22,5 0,0
28-04-2019 10,5     17,2     23,1 12,6 21 53 78 1.021 1.024 1.027 SE 4,5 22,5 0,0
27-04-2019 10,8     16,8     22,4 11,6 31 57 75 1.026 1.027 1.028 SE 5,3 24,1 0,0
26-04-2019 11,8     17,9     24,9 13,1 22 44 68 1.020 1.024 1.027 NW 6,9 33,8 0,0
25-04-2019 10,7     17,3     24,9 14,2 31 59 85 1.012 1.014 1.020 NNW 5,0 27,4 0,0
24-04-2019 9,3     15,4     20,9 11,6 28 50 71 1.008 1.011 1.014 SW 6,4 33,8 0,0
23-04-2019 12,1     15,8     22,1 10,0 36 67 86 1.000 1.002 1.007 SW 5,0 29,0 1,2
Últims 13 mesos disponibles
04/2019 7,9 11,6 14,6 16,0 14,8 21,5 29,6 21,7 39 63 89 1.002 1.016 1.027 SE 6,0 57,9 111,4
03/2019 4,6 8,2 12,3 14,2 14,0 20,9 28,9 24,3 33 55 83 1.013 1.024 1.032 SE 5,1 49,9 21,0
02/2019 3,2 6,6 11,9 12,2 14,2 19,1 26,2 23,0 26 57 72 999 1.026 1.034 W 5,3 67,6 0,0
01/2019 0,8 6,0 13,6 11,2 13,1 17,5 22,6 21,8 32 49 75 1.006 1.017 1.030 W 4,9 56,3 1,6
12/2018 5,3 8,2 11,7 12,6 9,5 19,0 24,4 19,1 44 67 92 1.012 1.027 1.033 OSO 4,0 64,4 8,8
10/2018 7,6 14,9 19,5 19,3 13,5 24,5 29,0 21,4 36 68 79 1.001 1.016 1.027 SSO 4,7 45,1 47,2
Tots els anys disponibles
Temperatura (°C)
Humitat relativa (%)
Velocitat del vent i ràfega màxima (km/h)
Direcció del vent (°)
Pressió (hPa)
Precipitació (mm)
Nota sobre les dades: s'avisa a l'usuari de la provisionalitat i no oficialitat d'aquestes dades
Logo AVAMET blanc
Web allotjada a Sollutia
Llicència de Creative CommonsLa web d'AVAMET i els seus continguts estan subjectes a una llicència de
Reconeixement - No Comercial - Compartir igual
Properes estacions: Altea - Club Nàutic d'Altea (Soci), Ontinyent - El Pilar (Soci), Ares del Maestrat (Ajuntament Soci), Catadau - L'Altet (Inforatge)     - - - - -      Últimes estacions: Jacarilla - centro (MeteOrihuela), Elx - Maitino/Vallverda/Velarde/Matola/Ferriol (Soci TiempoElche.com), Orihuela - Playa Flamenca (MeteOrihuela), Puçol - Ciutat Jardí (Soci), Alzira - La Casella (Soci) - - -